Time;durP1;ratioP1;P1;durP2;ratioP2;P2;SDS_P1;SDS_P2;PMS_P1;PMS_P2;Temp;Humidity;BMP_temperature;BMP_pressure;BME280_temperature;BME280_humidity;BME280_pressure;Samples;Min_cycle;Max_cycle;Signal;HPM_P1;HPM_P2
2021/06/08 00:01:28;;;;;;;;;;;24.40;52.40;;;;;;1563829;73;1121;-59
2021/06/08 00:03:30;;;;;;;;;;;24.40;52.30;;;;;;1575871;73;787;-59
2021/06/08 00:05:32;;;;;;;;;;;24.40;52.30;;;;;;1577086;73;1937;-59
2021/06/08 00:07:34;;;;;;;;;;;24.40;52.40;;;;;;1579506;73;725;-58
2021/06/08 00:09:36;;;;;;;;;;;24.40;52.60;;;;;;1578306;73;707;-58
2021/06/08 00:11:38;;;;;;;;;;;24.30;52.60;;;;;;1571651;73;1079;-58
2021/06/08 00:13:39;;;;;;;;;;;24.30;52.50;;;;;;1574125;73;724;-60
2021/06/08 00:15:41;;;;;;;;;;;24.40;52.40;;;;;;1574410;73;771;-59
2021/06/08 00:17:43;;;;;;;;;;;24.40;52.40;;;;;;1568266;73;743;-58
2021/06/08 00:19:45;;;;;;;;;;;24.40;52.30;;;;;;1574230;73;728;-59
2021/06/08 00:21:47;;;;;;;;;;;24.40;52.30;;;;;;1574117;73;1116;-56
2021/06/08 00:23:49;;;;;;;;;;;24.40;52.20;;;;;;1573178;73;814;-58
2021/06/08 00:25:51;;;;;;;;;;;24.40;52.20;;;;;;1574976;73;1941;-57
2021/06/08 00:27:53;;;;;;;;;;;24.40;52.10;;;;;;1576850;73;842;-59
2021/06/08 00:29:54;;;;;;;;;;;24.40;52.10;;;;;;1575187;73;805;-59
2021/06/08 00:31:56;;;;;;;;;;;24.40;52.10;;;;;;1575728;73;1170;-58
2021/06/08 00:33:58;;;;;;;;;;;24.40;51.80;;;;;;1576855;73;703;-58
2021/06/08 00:36:00;;;;;;;;;;;24.40;51.80;;;;;;1582536;73;703;-59
2021/06/08 00:38:02;;;;;;;;;;;24.40;52.00;;;;;;1580361;73;678;-58
2021/06/08 00:40:05;;;;;;;;;;;24.40;51.90;;;;;;1575051;73;797;-57
2021/06/08 00:42:07;;;;;;;;;;;24.40;51.90;;;;;;1579955;73;1091;-57
2021/06/08 00:44:13;;;;;;;;;;;24.40;52.00;;;;;;1586080;73;703;-59
2021/06/08 00:46:15;;;;;;;;;;;24.40;51.80;;;;;;1573029;73;1923;-58
2021/06/08 00:48:17;;;;;;;;;;;24.30;51.80;;;;;;1571564;73;719;-59
2021/06/08 00:50:19;;;;;;;;;;;24.30;51.80;;;;;;1580596;73;1153;-58
2021/06/08 00:52:21;;;;;;;;;;;24.40;51.80;;;;;;1583727;74;697;-56
2021/06/08 00:54:23;;;;;;;;;;;24.40;51.70;;;;;;1580386;74;780;-57
2021/06/08 00:56:25;;;;;;;;;;;24.40;51.70;;;;;;1574304;74;694;-58
2021/06/08 00:58:27;;;;;;;;;;;24.30;51.60;;;;;;1590657;73;767;-56
2021/06/08 01:00:29;;;;;;;;;;;24.40;51.60;;;;;;1577272;73;1176;-60
2021/06/08 01:02:31;;;;;;;;;;;24.40;51.60;;;;;;1570546;73;816;-60
2021/06/08 01:04:32;;;;;;;;;;;24.30;51.50;;;;;;1581374;73;830;-59
2021/06/08 01:06:35;;;;;;;;;;;24.40;51.60;;;;;;1580133;73;806;-59
2021/06/08 01:08:37;;;;;;;;;;;24.40;51.50;;;;;;1570340;73;797;-60
2021/06/08 01:10:39;;;;;;;;;;;24.30;51.60;;;;;;1577140;73;1145;-59
2021/06/08 01:12:41;;;;;;;;;;;24.40;51.50;;;;;;1579223;73;784;-60
2021/06/08 01:14:43;;;;;;;;;;;24.40;51.60;;;;;;1575218;73;807;-58
2021/06/08 01:16:45;;;;;;;;;;;24.30;51.70;;;;;;1580907;73;804;-58
2021/06/08 01:18:46;;;;;;;;;;;24.40;51.80;;;;;;1577249;73;908;-60
2021/06/08 01:20:50;;;;;;;;;;;24.30;52.10;;;;;;1574353;73;1146;-57
2021/06/08 01:22:52;;;;;;;;;;;24.30;51.90;;;;;;1581498;73;766;-60
2021/06/08 01:24:54;;;;;;;;;;;24.30;51.80;;;;;;1579022;73;1932;-58
2021/06/08 01:26:56;;;;;;;;;;;24.30;51.80;;;;;;1577125;73;755;-58
2021/06/08 01:28:58;;;;;;;;;;;24.30;51.60;;;;;;1587501;73;781;-59
2021/06/08 01:31:01;;;;;;;;;;;24.40;51.50;;;;;;1581933;73;1231;-59
2021/06/08 01:33:03;;;;;;;;;;;24.40;51.50;;;;;;1575834;73;1915;-60
2021/06/08 01:35:06;;;;;;;;;;;24.30;51.50;;;;;;1580226;73;784;-57
2021/06/08 01:37:08;;;;;;;;;;;24.30;51.50;;;;;;1577922;73;901;-57
2021/06/08 01:39:09;;;;;;;;;;;24.40;51.50;;;;;;1577551;73;684;-57
2021/06/08 01:41:14;;;;;;;;;;;24.30;51.40;;;;;;1581426;73;1153;-58
2021/06/08 01:43:17;;;;;;;;;;;24.40;51.60;;;;;;1579736;73;636;-59
2021/06/08 01:45:18;;;;;;;;;;;24.40;51.50;;;;;;1587313;73;1923;-59
2021/06/08 01:47:20;;;;;;;;;;;24.40;51.60;;;;;;1574714;74;714;-60
2021/06/08 01:49:22;;;;;;;;;;;24.30;51.80;;;;;;1581334;73;732;-59
2021/06/08 01:51:38;;;;;;;;;;;24.40;51.20;;;;;;1571225;73;1094;-56
2021/06/08 01:53:41;;;;;;;;;;;24.40;51.30;;;;;;1578237;73;795;-59
2021/06/08 01:55:44;;;;;;;;;;;24.30;51.50;;;;;;1574505;73;2002;-60
2021/06/08 01:57:48;;;;;;;;;;;24.40;51.10;;;;;;1587195;73;799;-60
2021/06/08 01:59:57;;;;;;;;;;;24.30;51.30;;;;;;1573087;73;797;-59
2021/06/08 02:02:01;;;;;;;;;;;24.40;50.70;;;;;;1586548;73;1263;-58
2021/06/08 02:04:04;;;;;;;;;;;24.40;50.70;;;;;;1580927;74;719;-60
2021/06/08 02:06:17;;;;;;;;;;;24.40;50.20;;;;;;1575426;73;2101;-60
2021/06/08 02:08:35;;;;;;;;;;;24.40;49.90;;;;;;1576127;73;1904;-59
2021/06/08 02:10:42;;;;;;;;;;;24.40;49.90;;;;;;1581953;73;1870;-59
2021/06/08 02:12:44;;;;;;;;;;;24.40;50.30;;;;;;1583968;73;823;-57
2021/06/08 02:15:00;;;;;;;;;;;24.40;50.50;;;;;;1588558;73;736;-58
2021/06/08 02:17:09;;;;;;;;;;;24.40;50.70;;;;;;1585589;73;680;-57
2021/06/08 02:19:11;;;;;;;;;;;24.40;50.50;;;;;;1585372;73;2086;-58
2021/06/08 02:21:14;;;;;;;;;;;24.40;50.50;;;;;;1575039;73;1124;-57
2021/06/08 02:23:17;;;;;;;;;;;24.40;50.70;;;;;;1571881;73;719;-56
2021/06/08 02:25:19;;;;;;;;;;;24.40;51.00;;;;;;1577043;73;1948;-57
2021/06/08 02:27:22;;;;;;;;;;;24.40;50.50;;;;;;1578018;73;702;-57
2021/06/08 02:29:24;;;;;;;;;;;24.40;50.40;;;;;;1589199;73;755;-60
2021/06/08 02:31:26;;;;;;;;;;;24.40;50.40;;;;;;1578070;73;1158;-60
2021/06/08 02:33:28;;;;;;;;;;;24.50;50.60;;;;;;1578632;73;786;-60
2021/06/08 02:35:30;;;;;;;;;;;24.40;50.70;;;;;;1576671;73;731;-60
2021/06/08 02:37:32;;;;;;;;;;;24.40;50.50;;;;;;1573078;73;786;-60
2021/06/08 02:39:34;;;;;;;;;;;24.40;50.30;;;;;;1580175;73;814;-57
2021/06/08 02:41:35;;;;;;;;;;;24.40;50.20;;;;;;1575490;73;1163;-58
2021/06/08 02:43:37;;;;;;;;;;;24.40;50.30;;;;;;1569581;73;830;-58
2021/06/08 02:45:40;;;;;;;;;;;24.40;50.20;;;;;;1575303;73;1954;-56
2021/06/08 02:47:42;;;;;;;;;;;24.40;50.20;;;;;;1576695;73;766;-58
2021/06/08 02:49:44;;;;;;;;;;;24.40;50.20;;;;;;1577012;73;733;-56
2021/06/08 02:51:46;;;;;;;;;;;24.40;50.10;;;;;;1577442;73;1150;-55
2021/06/08 02:53:48;;;;;;;;;;;24.40;50.00;;;;;;1573596;73;740;-58
2021/06/08 02:55:50;;;;;;;;;;;24.30;50.30;;;;;;1565845;73;751;-60
2021/06/08 02:57:52;;;;;;;;;;;24.40;50.20;;;;;;1574604;73;792;-59
2021/06/08 03:00:01;;;;;;;;;;;24.40;50.50;;;;;;1579337;73;773;-56
2021/06/08 03:01:58;;;;;;;;;;;24.40;50.30;;;;;;1580616;73;1622;-60
2021/06/08 03:04:00;;;;;;;;;;;24.40;50.30;;;;;;1580804;73;787;-58
2021/06/08 03:06:15;;;;;;;;;;;24.30;50.40;;;;;;1575899;73;1930;-57
2021/06/08 03:08:21;;;;;;;;;;;24.40;50.20;;;;;;1577392;73;802;-56
2021/06/08 03:10:23;;;;;;;;;;;24.30;50.20;;;;;;1572212;73;1789;-59
2021/06/08 03:12:30;;;;;;;;;;;24.30;50.40;;;;;;1581168;73;868;-56
2021/06/08 03:14:31;;;;;;;;;;;24.30;50.50;;;;;;1573135;73;806;-57
2021/06/08 03:16:34;;;;;;;;;;;24.30;50.50;;;;;;1576568;73;758;-55
2021/06/08 03:18:36;;;;;;;;;;;24.30;50.50;;;;;;1566056;73;739;-59
2021/06/08 03:20:42;;;;;;;;;;;24.30;50.70;;;;;;1568111;73;1139;-58
2021/06/08 03:22:45;;;;;;;;;;;24.40;50.50;;;;;;1570764;73;766;-58
2021/06/08 03:24:51;;;;;;;;;;;24.30;50.40;;;;;;1569002;73;714;-56
2021/06/08 03:26:53;;;;;;;;;;;24.30;50.40;;;;;;1575294;73;1928;-58
2021/06/08 03:28:55;;;;;;;;;;;24.30;50.50;;;;;;1570494;73;753;-60
2021/06/08 03:30:57;;;;;;;;;;;24.30;50.50;;;;;;1563492;73;1182;-61
2021/06/08 03:32:59;;;;;;;;;;;24.30;50.60;;;;;;1566268;73;775;-58
2021/06/08 03:35:02;;;;;;;;;;;24.30;50.50;;;;;;1573741;73;624;-58
2021/06/08 03:37:04;;;;;;;;;;;24.30;50.40;;;;;;1571636;73;621;-60
2021/06/08 03:39:06;;;;;;;;;;;24.30;50.40;;;;;;1572895;73;693;-60
2021/06/08 03:41:07;;;;;;;;;;;24.30;50.40;;;;;;1576414;73;1143;-59
2021/06/08 03:43:09;;;;;;;;;;;24.30;50.30;;;;;;1578653;73;714;-58
2021/06/08 03:45:14;;;;;;;;;;;24.30;50.70;;;;;;1575157;74;696;-58
2021/06/08 03:47:18;;;;;;;;;;;24.30;50.30;;;;;;1578419;73;1972;-61
2021/06/08 03:49:21;;;;;;;;;;;24.30;50.50;;;;;;1566175;74;701;-57
2021/06/08 03:51:22;;;;;;;;;;;24.30;50.40;;;;;;1567661;73;1176;-60
2021/06/08 03:53:25;;;;;;;;;;;24.30;50.30;;;;;;1575112;73;804;-58
2021/06/08 03:55:28;;;;;;;;;;;24.30;50.20;;;;;;1568258;73;779;-60
2021/06/08 03:57:33;;;;;;;;;;;24.30;50.20;;;;;;1569224;73;759;-58
2021/06/08 03:59:34;;;;;;;;;;;24.30;50.50;;;;;;1569352;73;1760;-60
2021/06/08 04:01:36;;;;;;;;;;;24.30;50.30;;;;;;1567678;73;1177;-60
2021/06/08 04:03:37;;;;;;;;;;;24.20;49.90;;;;;;1574589;73;660;-58
2021/06/08 04:05:40;;;;;;;;;;;24.30;50.20;;;;;;1580182;73;1930;-61
2021/06/08 04:07:43;;;;;;;;;;;24.30;50.10;;;;;;1574916;73;728;-58
2021/06/08 04:09:48;;;;;;;;;;;24.30;50.10;;;;;;1569464;73;1811;-60
2021/06/08 04:11:51;;;;;;;;;;;24.20;49.90;;;;;;1568431;73;1173;-56
2021/06/08 04:13:55;;;;;;;;;;;24.30;50.00;;;;;;1573872;73;748;-56
2021/06/08 04:15:57;;;;;;;;;;;24.30;50.30;;;;;;1562574;73;913;-59
2021/06/08 04:17:59;;;;;;;;;;;24.30;50.50;;;;;;1569754;73;807;-58
2021/06/08 04:20:01;;;;;;;;;;;24.30;51.00;;;;;;1570276;73;728;-57
2021/06/08 04:22:03;;;;;;;;;;;24.30;51.10;;;;;;1567778;73;1129;-60
2021/06/08 04:24:05;;;;;;;;;;;24.30;51.40;;;;;;1571285;73;744;-58
2021/06/08 04:26:07;;;;;;;;;;;24.30;51.20;;;;;;1573692;73;1908;-60
2021/06/08 04:28:09;;;;;;;;;;;24.30;51.10;;;;;;1573313;73;768;-59
2021/06/08 04:30:11;;;;;;;;;;;24.30;51.30;;;;;;1573445;73;739;-57
2021/06/08 04:32:13;;;;;;;;;;;24.30;51.40;;;;;;1571027;73;1201;-60
2021/06/08 04:34:19;;;;;;;;;;;24.30;51.60;;;;;;1572382;73;773;-58
2021/06/08 04:36:24;;;;;;;;;;;24.30;51.60;;;;;;1571731;73;781;-59
2021/06/08 04:38:25;;;;;;;;;;;24.30;51.80;;;;;;1551915;71;218262;-69
2021/06/08 04:40:27;;;;;;;;;;;24.30;51.40;;;;;;1515992;77;737;-71
2021/06/08 04:42:29;;;;;;;;;;;24.30;51.40;;;;;;1516313;77;749;-72
2021/06/08 04:44:31;;;;;;;;;;;24.40;51.30;;;;;;1515687;77;773;-72
2021/06/08 04:46:34;;;;;;;;;;;24.30;51.30;;;;;;1506597;77;1941;-72
2021/06/08 04:48:36;;;;;;;;;;;24.30;51.10;;;;;;1495855;77;1223;-74
2021/06/08 04:50:38;;;;;;;;;;;24.40;51.10;;;;;;1480946;78;730;-72
2021/06/08 04:52:40;;;;;;;;;;;24.40;51.20;;;;;;1495099;78;782;-72
2021/06/08 04:54:42;;;;;;;;;;;24.40;51.30;;;;;;1486980;78;721;-74
2021/06/08 04:56:44;;;;;;;;;;;24.40;51.10;;;;;;1487479;78;774;-73
2021/06/08 04:58:46;;;;;;;;;;;24.30;51.10;;;;;;1487157;78;1135;-73
2021/06/08 05:00:54;;;;;;;;;;;24.30;51.30;;;;;;1478145;78;747;-75
2021/06/08 05:02:56;;;;;;;;;;;24.30;51.30;;;;;;1484341;78;1465;-74
2021/06/08 05:04:59;;;;;;;;;;;24.30;51.00;;;;;;1489668;78;771;-73
2021/06/08 05:07:02;;;;;;;;;;;24.40;51.30;;;;;;1488377;78;1938;-77
2021/06/08 05:09:14;;;;;;;;;;;24.40;51.10;;;;;;1480061;78;1136;-73
2021/06/08 05:11:34;;;;;;;;;;;24.40;51.50;;;;;;1473805;78;739;-72
2021/06/08 05:13:36;;;;;;;;;;;24.40;51.50;;;;;;1477479;78;748;-69
2021/06/08 05:15:37;;;;;;;;;;;24.30;51.50;;;;;;1472775;78;909;-70
2021/06/08 05:17:39;;;;;;;;;;;24.30;51.30;;;;;;1473909;78;1172;-67
2021/06/08 05:19:41;;;;;;;;;;;24.40;51.30;;;;;;1474162;78;768;-70
2021/06/08 05:21:43;;;;;;;;;;;24.30;51.30;;;;;;1474893;78;736;-71
2021/06/08 05:23:46;;;;;;;;;;;24.30;51.40;;;;;;1476876;78;736;-73
2021/06/08 05:25:49;;;;;;;;;;;24.30;51.50;;;;;;1486564;78;731;-69
2021/06/08 05:27:51;;;;;;;;;;;24.30;51.80;;;;;;1477565;78;1945;-74
2021/06/08 05:29:59;;;;;;;;;;;24.30;51.50;;;;;;1493685;78;738;-73
2021/06/08 05:32:01;;;;;;;;;;;24.30;51.60;;;;;;1492623;78;689;-72
2021/06/08 05:34:03;;;;;;;;;;;24.40;51.50;;;;;;1498458;78;792;-72
2021/06/08 05:36:05;;;;;;;;;;;24.20;51.70;;;;;;1514115;77;738;-71
2021/06/08 05:38:07;;;;;;;;;;;24.20;51.90;;;;;;1502771;77;1171;-69
2021/06/08 05:40:09;;;;;;;;;;;24.20;51.60;;;;;;1508223;77;754;-72
2021/06/08 05:42:18;;;;;;;;;;;24.10;51.80;;;;;;1512502;77;732;-70
2021/06/08 05:44:19;;;;;;;;;;;24.10;52.20;;;;;;1511477;77;1772;-69
2021/06/08 05:46:20;;;;;;;;;;;24.20;51.60;;;;;;1499195;77;1933;-70
2021/06/08 05:48:22;;;;;;;;;;;24.10;51.30;;;;;;1506944;77;1181;-70
2021/06/08 05:50:24;;;;;;;;;;;24.10;51.10;;;;;;1501594;77;773;-69
2021/06/08 05:52:26;;;;;;;;;;;24.10;51.00;;;;;;1500071;77;758;-69
2021/06/08 05:54:28;;;;;;;;;;;24.10;50.80;;;;;;1508232;77;767;-68
2021/06/08 05:56:34;;;;;;;;;;;24.10;50.80;;;;;;1498405;77;788;-69
2021/06/08 05:58:36;;;;;;;;;;;24.10;50.80;;;;;;1507667;77;1123;-68
2021/06/08 06:00:38;;;;;;;;;;;24.20;50.80;;;;;;1502273;77;793;-69
2021/06/08 06:02:40;;;;;;;;;;;24.10;51.00;;;;;;1512769;77;724;-70
2021/06/08 06:04:43;;;;;;;;;;;24.10;50.60;;;;;;1510812;77;744;-70
2021/06/08 06:06:45;;;;;;;;;;;24.10;50.40;;;;;;1497909;77;1926;-70
2021/06/08 06:08:47;;;;;;;;;;;24.10;50.70;;;;;;1506100;77;1082;-70
2021/06/08 06:10:49;;;;;;;;;;;24.10;50.60;;;;;;1492513;77;777;-70
2021/06/08 06:12:52;;;;;;;;;;;24.00;50.50;;;;;;1502127;77;683;-70
2021/06/08 06:15:01;;;;;;;;;;;24.00;50.60;;;;;;1508671;77;676;-70
2021/06/08 06:16:57;;;;;;;;;;;24.00;50.70;;;;;;1499925;77;1675;-70
2021/06/08 06:19:00;;;;;;;;;;;24.10;50.70;;;;;;1501852;77;1107;-71
2021/06/08 06:21:02;;;;;;;;;;;24.00;50.70;;;;;;1506720;77;786;-73
2021/06/08 06:23:04;;;;;;;;;;;24.00;50.70;;;;;;1501378;77;817;-68
2021/06/08 06:25:07;;;;;;;;;;;24.10;50.80;;;;;;1509589;77;776;-67
2021/06/08 06:27:09;;;;;;;;;;;24.10;50.50;;;;;;1495422;77;1956;-69
2021/06/08 06:29:13;;;;;;;;;;;24.00;50.20;;;;;;1520286;76;1097;-67
2021/06/08 06:31:14;;;;;;;;;;;24.00;50.50;;;;;;1510490;77;781;-69
2021/06/08 06:33:16;;;;;;;;;;;24.00;50.50;;;;;;1498991;77;757;-69
2021/06/08 06:35:18;;;;;;;;;;;24.00;50.50;;;;;;1508624;77;761;-66
2021/06/08 06:37:21;;;;;;;;;;;24.00;50.30;;;;;;1514558;77;851;-70
2021/06/08 06:39:25;;;;;;;;;;;24.00;50.40;;;;;;1513564;77;1857;-70
2021/06/08 06:41:27;;;;;;;;;;;24.10;50.50;;;;;;1508397;77;772;-73
2021/06/08 06:43:28;;;;;;;;;;;24.00;50.40;;;;;;1503530;77;787;-70
2021/06/08 06:45:31;;;;;;;;;;;24.00;50.40;;;;;;1495775;77;716;-72
2021/06/08 06:47:33;;;;;;;;;;;24.00;50.50;;;;;;1503278;77;1936;-70
2021/06/08 06:49:35;;;;;;;;;;;24.00;50.40;;;;;;1504458;77;764;-70
2021/06/08 06:51:37;;;;;;;;;;;24.00;50.40;;;;;;1509091;77;756;-70
2021/06/08 06:53:40;;;;;;;;;;;24.00;50.30;;;;;;1511512;77;763;-70
2021/06/08 06:55:42;;;;;;;;;;;24.00;50.30;;;;;;1506457;77;685;-70
2021/06/08 06:57:44;;;;;;;;;;;24.00;50.30;;;;;;1509727;77;1127;-71
2021/06/08 06:59:46;;;;;;;;;;;24.00;50.40;;;;;;1501184;77;752;-70
2021/06/08 07:01:48;;;;;;;;;;;24.00;50.20;;;;;;1495712;77;799;-68
2021/06/08 07:03:56;;;;;;;;;;;24.00;50.20;;;;;;1516205;77;699;-70
2021/06/08 07:05:58;;;;;;;;;;;23.90;50.20;;;;;;1513832;77;792;-70
2021/06/08 07:08:02;;;;;;;;;;;24.00;50.20;;;;;;1507354;77;1930;-70
2021/06/08 07:10:04;;;;;;;;;;;23.90;50.40;;;;;;1509414;77;837;-71
2021/06/08 07:12:06;;;;;;;;;;;23.90;50.50;;;;;;1507282;77;834;-70
2021/06/08 07:14:08;;;;;;;;;;;23.90;50.50;;;;;;1513730;77;695;-70
2021/06/08 07:16:10;;;;;;;;;;;23.90;50.50;;;;;;1513755;77;804;-70
2021/06/08 07:18:12;;;;;;;;;;;24.00;50.50;;;;;;1502098;77;1198;-70
2021/06/08 07:20:16;;;;;;;;;;;23.90;50.60;;;;;;1500978;77;739;-72
2021/06/08 07:22:18;;;;;;;;;;;24.00;50.60;;;;;;1516728;77;1679;-70
2021/06/08 07:24:20;;;;;;;;;;;23.90;50.60;;;;;;1484281;79;950;-70
2021/06/08 07:26:25;;;;;;;;;;;24.00;50.60;;;;;;1509739;77;767;-70
2021/06/08 07:28:27;;;;;;;;;;;24.00;50.60;;;;;;1519949;76;1915;-71
2021/06/08 07:30:29;;;;;;;;;;;23.90;50.70;;;;;;1502104;77;769;-72
2021/06/08 07:32:38;;;;;;;;;;;23.90;50.70;;;;;;1515533;77;780;-70
2021/06/08 07:34:45;;;;;;;;;;;24.00;50.60;;;;;;1499957;77;1333;-70
2021/06/08 07:36:46;;;;;;;;;;;23.90;50.60;;;;;;1505808;77;772;-70
2021/06/08 07:38:56;;;;;;;;;;;23.90;50.60;;;;;;1503751;77;1160;-70
2021/06/08 07:41:04;;;;;;;;;;;23.90;50.60;;;;;;1507148;77;1586;-70
2021/06/08 07:43:05;;;;;;;;;;;23.90;50.50;;;;;;1509962;77;697;-70
2021/06/08 07:45:14;;;;;;;;;;;23.90;50.50;;;;;;1506727;77;784;-70
2021/06/08 07:47:17;;;;;;;;;;;23.90;50.60;;;;;;1503201;77;1930;-70
2021/06/08 07:49:19;;;;;;;;;;;24.00;50.50;;;;;;1508194;77;1146;-70
2021/06/08 07:51:21;;;;;;;;;;;23.90;50.50;;;;;;1510170;77;765;-70
2021/06/08 07:53:23;;;;;;;;;;;23.90;50.60;;;;;;1510821;77;678;-70
2021/06/08 07:55:24;;;;;;;;;;;24.00;50.60;;;;;;1510719;77;776;-71
2021/06/08 07:57:26;;;;;;;;;;;24.00;50.50;;;;;;1499796;77;832;-73
2021/06/08 07:59:28;;;;;;;;;;;24.10;50.50;;;;;;1507609;77;1091;-70
2021/06/08 08:01:30;;;;;;;;;;;24.10;50.80;;;;;;1504836;77;771;-71
2021/06/08 08:03:32;;;;;;;;;;;24.00;50.30;;;;;;1514188;77;727;-68
2021/06/08 08:05:34;;;;;;;;;;;24.10;50.50;;;;;;1491448;78;737;-70
2021/06/08 08:07:36;;;;;;;;;;;24.10;50.50;;;;;;1506942;78;1944;-70
2021/06/08 08:09:38;;;;;;;;;;;24.00;50.40;;;;;;1513870;78;775;-71
2021/06/08 08:11:41;;;;;;;;;;;24.00;50.40;;;;;;1501605;78;724;-70
2021/06/08 08:13:45;;;;;;;;;;;24.10;50.70;;;;;;1506175;78;780;-70
2021/06/08 08:15:47;;;;;;;;;;;24.00;50.70;;;;;;1505703;78;798;-70
2021/06/08 08:17:49;;;;;;;;;;;24.00;50.70;;;;;;1503973;78;1148;-70
2021/06/08 08:19:51;;;;;;;;;;;24.00;50.70;;;;;;1508332;78;794;-70
2021/06/08 08:21:53;;;;;;;;;;;24.00;50.70;;;;;;1504555;78;725;-69
2021/06/08 08:23:55;;;;;;;;;;;24.00;50.90;;;;;;1502062;78;794;-70
2021/06/08 08:25:57;;;;;;;;;;;24.00;50.80;;;;;;1503718;77;721;-70
2021/06/08 08:27:59;;;;;;;;;;;24.00;50.80;;;;;;1506160;78;1945;-70
2021/06/08 08:30:01;;;;;;;;;;;24.00;50.80;;;;;;1505785;78;668;-71
2021/06/08 08:32:03;;;;;;;;;;;24.00;50.80;;;;;;1494638;78;807;-70
2021/06/08 08:34:05;;;;;;;;;;;24.00;50.80;;;;;;1493590;78;788;-71
2021/06/08 08:36:07;;;;;;;;;;;24.00;50.90;;;;;;1494184;78;772;-72
2021/06/08 08:38:09;;;;;;;;;;;24.00;50.90;;;;;;1495576;78;1189;-67
2021/06/08 08:40:11;;;;;;;;;;;24.00;50.80;;;;;;1500370;78;860;-69
2021/06/08 08:42:13;;;;;;;;;;;24.00;50.80;;;;;;1497965;78;707;-70
2021/06/08 08:44:15;;;;;;;;;;;24.10;51.00;;;;;;1489759;78;796;-70
2021/06/08 08:46:17;;;;;;;;;;;24.20;51.00;;;;;;1495277;78;718;-69
2021/06/08 08:48:20;;;;;;;;;;;24.20;51.00;;;;;;1499234;78;1941;-69
2021/06/08 08:50:22;;;;;;;;;;;24.20;50.90;;;;;;1507840;78;1632;-70
2021/06/08 08:52:24;;;;;;;;;;;24.20;50.80;;;;;;1502996;78;730;-71
2021/06/08 08:54:28;;;;;;;;;;;24.20;51.00;;;;;;1501941;78;771;-71
2021/06/08 08:56:33;;;;;;;;;;;24.20;51.00;;;;;;1507201;78;831;-70
2021/06/08 08:58:35;;;;;;;;;;;24.20;51.10;;;;;;1497767;78;1154;-68
2021/06/08 09:00:37;;;;;;;;;;;24.20;51.10;;;;;;1503500;78;686;-70
2021/06/08 09:02:39;;;;;;;;;;;24.20;51.10;;;;;;1512253;78;771;-70
2021/06/08 09:04:41;;;;;;;;;;;24.10;50.90;;;;;;1503360;78;773;-70
2021/06/08 09:06:43;;;;;;;;;;;24.20;51.20;;;;;;1493821;78;796;-71
2021/06/08 09:08:45;;;;;;;;;;;24.20;50.90;;;;;;1488815;78;1939;-70
2021/06/08 09:10:47;;;;;;;;;;;24.20;51.00;;;;;;1489370;78;822;-70
2021/06/08 09:12:49;;;;;;;;;;;24.10;51.00;;;;;;1496385;78;823;-71
2021/06/08 09:14:51;;;;;;;;;;;24.10;51.00;;;;;;1498349;78;773;-72
2021/06/08 09:16:53;;;;;;;;;;;24.10;51.10;;;;;;1495246;78;781;-70
2021/06/08 09:18:55;;;;;;;;;;;24.20;51.00;;;;;;1505211;78;1122;-71
2021/06/08 09:20:58;;;;;;;;;;;24.20;51.10;;;;;;1506504;78;699;-70
2021/06/08 09:23:01;;;;;;;;;;;24.00;51.10;;;;;;1502227;78;1675;-70
2021/06/08 09:25:03;;;;;;;;;;;24.10;51.10;;;;;;1496953;77;718;-70
2021/06/08 09:27:05;;;;;;;;;;;24.20;51.00;;;;;;1500885;78;739;-70
2021/06/08 09:29:07;;;;;;;;;;;24.00;50.80;;;;;;1504808;78;1949;-70
2021/06/08 09:31:16;;;;;;;;;;;24.10;51.00;;;;;;1493339;78;724;-70
2021/06/08 09:33:22;;;;;;;;;;;24.10;51.10;;;;;;1492063;78;650;-70
2021/06/08 09:35:23;;;;;;;;;;;24.10;51.00;;;;;;1495848;78;715;-70
2021/06/08 09:37:39;;;;;;;;;;;24.10;51.10;;;;;;1482225;79;1201;-68
2021/06/08 09:39:47;;;;;;;;;;;24.10;50.90;;;;;;1498229;78;764;-70
2021/06/08 09:41:49;;;;;;;;;;;24.10;50.80;;;;;;1492701;78;810;-70
2021/06/08 09:43:56;;;;;;;;;;;24.10;51.20;;;;;;1492540;78;742;-72
2021/06/08 09:45:58;;;;;;;;;;;24.10;51.20;;;;;;1496430;78;810;-70
2021/06/08 09:48:00;;;;;;;;;;;24.20;51.20;;;;;;1475292;79;1952;-70
2021/06/08 09:50:03;;;;;;;;;;;24.20;51.20;;;;;;1492958;78;749;-70
2021/06/08 09:52:06;;;;;;;;;;;24.30;51.20;;;;;;1493857;78;832;-70
2021/06/08 09:54:09;;;;;;;;;;;24.30;51.20;;;;;;1496598;77;747;-70
2021/06/08 09:56:13;;;;;;;;;;;24.20;50.80;;;;;;1499714;77;1889;-66
2021/06/08 09:58:14;;;;;;;;;;;24.10;51.10;;;;;;1494641;78;1151;-70
2021/06/08 10:00:17;;;;;;;;;;;24.20;51.00;;;;;;1489759;78;730;-70
2021/06/08 10:02:22;;;;;;;;;;;24.20;51.10;;;;;;1489342;78;819;-70
2021/06/08 10:04:27;;;;;;;;;;;24.30;51.10;;;;;;1486392;78;682;-70
2021/06/08 10:06:29;;;;;;;;;;;24.20;50.80;;;;;;1499402;78;1695;-70
2021/06/08 10:08:31;;;;;;;;;;;24.20;51.00;;;;;;1499861;78;1931;-70
2021/06/08 10:10:46;;;;;;;;;;;24.20;51.10;;;;;;1505683;78;715;-68
2021/06/08 10:12:55;;;;;;;;;;;24.20;50.90;;;;;;1502770;78;807;-70
2021/06/08 10:15:15;;;;;;;;;;;24.20;51.00;;;;;;1515715;78;741;-70
2021/06/08 10:17:14;;;;;;;;;;;24.20;51.00;;;;;;1505456;78;1276;-70
2021/06/08 10:19:25;;;;;;;;;;;24.30;51.20;;;;;;1487362;78;1184;-70
2021/06/08 10:21:41;;;;;;;;;;;24.20;51.00;;;;;;1506236;78;812;-69
2021/06/08 10:23:43;;;;;;;;;;;24.20;51.20;;;;;;1504832;78;834;-70
2021/06/08 10:25:45;;;;;;;;;;;24.20;51.00;;;;;;1504634;78;757;-70
2021/06/08 10:27:47;;;;;;;;;;;24.20;51.00;;;;;;1497558;78;1220;-70
2021/06/08 10:29:49;;;;;;;;;;;24.20;51.20;;;;;;1502828;78;1941;-68
2021/06/08 10:31:51;;;;;;;;;;;24.20;51.20;;;;;;1501338;78;682;-70
2021/06/08 10:33:53;;;;;;;;;;;24.20;51.20;;;;;;1502976;78;815;-71
2021/06/08 10:35:55;;;;;;;;;;;24.30;51.40;;;;;;1502106;78;731;-69
2021/06/08 10:37:57;;;;;;;;;;;24.40;50.70;;;;;;1498586;78;1148;-70
2021/06/08 10:40:02;;;;;;;;;;;24.40;51.00;;;;;;1573138;72;3094;-66
2021/06/08 10:42:04;;;;;;;;;;;24.40;51.00;;;;;;1598329;73;788;-66
2021/06/08 10:44:06;;;;;;;;;;;24.50;51.00;;;;;;1591290;73;758;-66
2021/06/08 10:46:09;;;;;;;;;;;24.40;50.40;;;;;;1589036;73;1145;-66
2021/06/08 10:48:17;;;;;;;;;;;24.40;51.00;;;;;;1584012;73;1930;-65
2021/06/08 10:50:26;;;;;;;;;;;24.20;51.30;;;;;;1592770;73;1651;-66
2021/06/08 10:52:28;;;;;;;;;;;24.20;51.50;;;;;;1589094;73;839;-65
2021/06/08 10:54:30;;;;;;;;;;;24.30;51.00;;;;;;1592597;73;841;-64
2021/06/08 10:56:32;;;;;;;;;;;24.30;50.90;;;;;;1564738;74;1215;-66
2021/06/08 10:58:44;;;;;;;;;;;24.30;51.10;;;;;;1596008;73;1152;-65
2021/06/08 11:00:51;;;;;;;;;;;24.30;51.10;;;;;;1590846;73;747;-66
2021/06/08 11:02:56;;;;;;;;;;;24.30;51.30;;;;;;1595053;73;1673;-66
2021/06/08 11:04:54;;;;;;;;;;;24.20;51.20;;;;;;1599652;73;1597;-66
2021/06/08 11:06:56;;;;;;;;;;;24.30;51.30;;;;;;1593569;73;821;-65
2021/06/08 11:09:02;;;;;;;;;;;24.30;51.10;;;;;;1599821;73;1913;-66
2021/06/08 11:11:04;;;;;;;;;;;24.20;51.00;;;;;;1598150;73;796;-68
2021/06/08 11:13:11;;;;;;;;;;;24.20;51.20;;;;;;1595118;73;816;-65
2021/06/08 11:15:22;;;;;;;;;;;24.20;51.30;;;;;;1595631;73;863;-66
2021/06/08 11:17:30;;;;;;;;;;;24.10;51.30;;;;;;1593373;73;723;-65
2021/06/08 11:19:45;;;;;;;;;;;24.00;51.40;;;;;;1591986;73;1117;-65
2021/06/08 11:21:49;;;;;;;;;;;24.00;51.70;;;;;;1595267;73;730;-63
2021/06/08 11:23:54;;;;;;;;;;;24.00;51.90;;;;;;1589063;73;1830;-65
2021/06/08 11:25:54;;;;;;;;;;;24.10;51.50;;;;;;1588241;73;1441;-65
2021/06/08 11:27:57;;;;;;;;;;;24.10;51.40;;;;;;1594986;73;777;-66
2021/06/08 11:30:00;;;;;;;;;;;24.20;51.40;;;;;;1591119;73;1934;-65
2021/06/08 11:32:02;;;;;;;;;;;24.20;51.00;;;;;;1599161;73;745;-66
2021/06/08 11:34:04;;;;;;;;;;;24.20;50.80;;;;;;1591431;73;723;-67
2021/06/08 11:36:23;;;;;;;;;;;24.20;50.90;;;;;;1592382;73;890;-67
2021/06/08 11:38:26;;;;;;;;;;;24.20;51.10;;;;;;1588411;73;1162;-63
2021/06/08 11:40:39;;;;;;;;;;;24.20;51.00;;;;;;1592601;73;807;-66
2021/06/08 11:42:41;;;;;;;;;;;24.30;51.10;;;;;;1590622;73;684;-65
2021/06/08 11:44:43;;;;;;;;;;;24.20;51.00;;;;;;1587286;73;796;-64
2021/06/08 11:46:53;;;;;;;;;;;24.20;51.40;;;;;;1594424;73;768;-65
2021/06/08 11:48:56;;;;;;;;;;;24.20;51.20;;;;;;1586128;73;1937;-68
2021/06/08 11:51:02;;;;;;;;;;;24.20;51.20;;;;;;1587269;73;1878;-65
2021/06/08 11:53:06;;;;;;;;;;;24.20;51.00;;;;;;1576817;74;936;-64
2021/06/08 11:55:09;;;;;;;;;;;24.10;51.30;;;;;;1579734;73;2086;-65
2021/06/08 11:57:15;;;;;;;;;;;24.00;51.50;;;;;;1578898;74;1878;-63
2021/06/08 11:59:18;;;;;;;;;;;24.00;51.60;;;;;;1566087;74;1181;-67
2021/06/08 12:01:36;;;;;;;;;;;24.10;51.30;;;;;;1584016;74;821;-65
2021/06/08 12:03:38;;;;;;;;;;;24.10;52.20;;;;;;1579572;73;881;-66
2021/06/08 12:05:43;;;;;;;;;;;24.00;52.10;;;;;;1578032;74;750;-65
2021/06/08 12:07:49;;;;;;;;;;;24.10;51.80;;;;;;1580956;73;766;-65
2021/06/08 12:09:50;;;;;;;;;;;24.10;51.50;;;;;;1576490;74;1958;-66
2021/06/08 12:11:52;;;;;;;;;;;24.20;51.50;;;;;;1580743;74;719;-65
2021/06/08 12:13:54;;;;;;;;;;;24.10;51.90;;;;;;1579108;74;775;-66
2021/06/08 12:15:56;;;;;;;;;;;24.00;51.80;;;;;;1583373;73;808;-67